createdAt,value
2023-02-24T01:07:11.402Z,33.33
2023-02-24T01:08:11.275Z,33.33
2023-02-24T01:09:11.260Z,33.33
2023-02-24T01:10:11.259Z,33.33
2023-02-24T01:11:11.253Z,33.34
2023-02-24T01:12:11.329Z,33.37
2023-02-24T01:13:11.267Z,33.35
2023-02-24T01:14:11.271Z,33.32
2023-02-24T01:15:11.265Z,33.34
2023-02-24T01:16:11.307Z,33.32
2023-02-24T01:17:11.270Z,33.35
2023-02-24T01:18:11.276Z,33.42
2023-02-24T01:19:11.274Z,33.31
2023-02-24T01:20:11.275Z,33.28
2023-02-24T01:21:11.277Z,33.31
2023-02-24T01:22:11.276Z,33.30
2023-02-24T01:23:11.288Z,33.32
2023-02-24T01:24:11.307Z,33.29
2023-02-24T01:25:11.372Z,33.23
2023-02-24T01:26:11.303Z,33.24
2023-02-24T01:27:11.379Z,33.25
2023-02-24T01:28:11.312Z,33.27
2023-02-24T01:29:11.334Z,33.24
2023-02-24T01:30:12.262Z,33.27
2023-02-24T01:31:11.412Z,33.24
2023-02-24T01:32:11.524Z,33.19
2023-02-24T01:33:11.382Z,33.21
2023-02-24T01:34:11.368Z,33.20
2023-02-24T01:35:11.354Z,33.16
2023-02-24T01:36:11.372Z,33.19
2023-02-24T01:37:11.371Z,33.21
2023-02-24T01:38:11.385Z,33.18
2023-02-24T01:39:11.399Z,33.12
2023-02-24T01:40:11.414Z,33.18
2023-02-24T01:41:11.403Z,33.11
2023-02-24T01:42:11.423Z,33.11
2023-02-24T01:43:11.434Z,33.11
2023-02-24T01:44:11.441Z,33.08
2023-02-24T01:45:11.445Z,33.07
2023-02-24T01:46:11.544Z,33.09
2023-02-24T01:47:11.469Z,33.07
2023-02-24T01:48:11.464Z,33.02
2023-02-24T01:49:11.506Z,33.01
2023-02-24T01:50:11.536Z,33.04
2023-02-24T01:51:12.269Z,33.01
2023-02-24T01:52:11.474Z,33.01
2023-02-24T01:53:11.487Z,32.98
2023-02-24T01:54:11.496Z,33.02
2023-02-24T01:55:11.502Z,32.98
2023-02-24T01:56:11.507Z,32.95
2023-02-24T01:57:11.517Z,33.00
2023-02-24T01:58:11.587Z,32.95
2023-02-24T01:59:11.538Z,32.97
2023-02-24T02:00:11.535Z,32.98
2023-02-24T02:01:12.304Z,32.94
2023-02-24T02:02:11.669Z,32.94
2023-02-24T02:03:11.572Z,32.92
2023-02-24T02:04:11.602Z,32.92
2023-02-24T02:05:11.618Z,32.91
2023-02-24T02:06:11.599Z,32.89
2023-02-24T02:07:11.705Z,32.88
2023-02-24T02:08:11.614Z,32.86
2023-02-24T02:09:11.793Z,32.86
2023-02-24T02:10:11.647Z,32.85
2023-02-24T02:11:11.646Z,32.89
2023-02-24T02:12:11.721Z,32.87
2023-02-24T02:13:11.662Z,32.82
2023-02-24T05:20:09.139Z,30.98
2023-02-24T05:21:09.113Z,30.96
2023-02-24T05:22:09.089Z,30.94
2023-02-24T05:23:09.074Z,30.98
2023-02-24T05:24:09.066Z,30.95
2023-02-24T05:25:09.124Z,30.91
2023-02-24T05:26:09.077Z,30.95
2023-02-24T05:27:09.007Z,30.91
2023-02-24T05:28:08.969Z,30.89
2023-02-24T05:29:08.950Z,30.88
2023-02-24T05:30:08.933Z,30.84
2023-02-24T05:31:09.033Z,30.78
2023-02-24T05:32:08.976Z,30.82
2023-02-24T05:33:08.878Z,30.81
2023-02-24T05:34:08.854Z,30.82
2023-02-24T05:35:08.848Z,30.82
2023-02-24T05:36:08.870Z,30.82
2023-02-24T05:37:08.805Z,30.78
2023-02-24T05:38:08.773Z,30.79
2023-02-24T05:39:08.758Z,30.81
2023-02-24T05:40:08.759Z,30.75
2023-02-24T05:41:08.729Z,30.74
2023-02-24T05:42:08.711Z,30.78
2023-02-24T05:43:08.706Z,30.78
2023-02-24T05:44:08.782Z,30.71
2023-02-24T05:45:08.658Z,30.68
2023-02-24T05:46:08.642Z,30.65
2023-02-24T05:47:08.631Z,30.68
2023-02-24T05:48:08.609Z,30.71
2023-02-24T05:49:08.608Z,30.68
2023-02-24T05:50:08.576Z,30.59
2023-02-24T05:51:09.350Z,30.62
2023-02-24T05:52:08.541Z,30.58
2023-02-24T05:53:08.520Z,30.57
2023-02-24T05:54:08.513Z,30.59
2023-02-24T05:55:08.524Z,30.57
2023-02-24T05:56:08.460Z,30.51
2023-02-24T05:57:08.467Z,30.48
2023-02-24T05:58:08.436Z,30.48
2023-02-24T05:59:08.430Z,30.46
2023-02-24T06:00:08.406Z,30.42
2023-02-24T06:01:08.402Z,30.50
2023-02-24T06:02:08.450Z,30.51
2023-02-24T06:03:08.579Z,30.45
2023-02-24T06:04:08.365Z,30.46
2023-02-24T06:05:08.327Z,30.47
2023-02-24T06:06:08.315Z,30.45
2023-02-24T06:07:08.292Z,30.44
2023-02-24T06:08:08.366Z,30.44
2023-02-24T06:09:08.326Z,30.44
2023-02-24T06:10:08.249Z,30.42
2023-02-24T06:11:08.243Z,30.35
2023-02-24T06:12:08.260Z,30.38
2023-02-24T06:13:08.240Z,30.39
2023-02-24T06:14:08.253Z,30.42
2023-02-24T06:15:08.324Z,30.35
2023-02-24T06:16:08.338Z,30.35
2023-02-24T06:17:08.154Z,30.35
2023-02-24T06:18:08.368Z,30.38
2023-02-24T06:19:08.123Z,30.37
2023-02-24T06:20:08.115Z,30.31
2023-02-24T06:21:08.094Z,30.32
2023-02-24T06:22:08.079Z,30.35
2023-02-24T06:23:08.066Z,30.40
2023-02-24T06:24:08.027Z,30.46
2023-02-24T06:25:08.099Z,30.75
2023-02-24T06:26:08.002Z,30.83
2023-02-24T06:27:07.972Z,30.91
2023-02-24T06:29:07.958Z,31.38
2023-02-24T06:30:07.939Z,31.52
2023-02-24T06:31:07.844Z,31.70
2023-02-24T06:32:08.074Z,31.96
2023-02-24T06:33:07.850Z,32.15
2023-02-24T06:34:07.987Z,32.10
2023-02-24T06:35:07.865Z,32.19
2023-02-24T06:36:07.872Z,32.22
2023-02-24T06:37:07.893Z,32.44
2023-02-24T06:38:07.912Z,32.53
2023-02-24T06:39:07.931Z,32.69
2023-02-24T06:40:08.804Z,32.76
2023-02-24T06:41:07.935Z,32.94
2023-02-24T06:42:07.941Z,33.31
2023-02-24T06:43:07.942Z,33.18
2023-02-24T06:44:07.946Z,33.14
2023-02-24T06:45:08.092Z,33.19
2023-02-24T06:46:08.083Z,33.35
2023-02-24T06:47:07.955Z,33.40
2023-02-24T06:48:07.944Z,33.54
2023-02-24T06:49:07.916Z,33.69
2023-02-24T06:50:07.900Z,33.73
2023-02-24T06:51:07.887Z,33.87
2023-02-24T06:52:07.863Z,33.99
2023-02-24T06:53:07.921Z,34.07
2023-02-24T06:54:07.829Z,34.16
2023-02-24T06:55:07.788Z,34.19
2023-02-24T07:06:07.533Z,35.41
2023-02-24T07:07:08.319Z,35.50
2023-02-24T07:08:07.463Z,35.43
2023-02-24T07:09:08.340Z,35.33
2023-02-24T07:10:07.286Z,35.78
2023-02-24T07:11:07.237Z,35.83
2023-02-24T07:12:07.274Z,35.78
2023-02-24T07:13:07.142Z,35.82
2023-02-24T07:14:07.111Z,36.00
2023-02-24T07:17:06.966Z,32.72
2023-02-24T07:18:06.945Z,31.93
2023-02-24T07:19:06.873Z,33.24
2023-02-24T07:20:06.817Z,34.00
2023-02-24T07:21:06.775Z,34.36
2023-02-24T07:22:06.827Z,34.47
2023-02-24T07:23:06.699Z,34.41
2023-02-24T07:31:06.836Z,30.21
2023-02-24T07:32:06.913Z,29.92
2023-02-24T07:34:06.667Z,29.15
2023-02-24T07:35:06.628Z,28.99
2023-02-24T07:36:06.598Z,29.09
2023-02-24T07:37:06.606Z,29.15
2023-02-24T07:38:06.580Z,28.97
2023-02-24T07:39:07.389Z,28.85
2023-02-24T07:40:06.466Z,28.68
2023-02-24T07:41:06.412Z,28.60
2023-02-24T07:42:06.383Z,29.27
2023-02-24T07:43:06.355Z,29.56
2023-02-24T07:44:06.300Z,30.26
2023-02-24T07:45:06.289Z,30.58
2023-02-24T07:46:06.301Z,30.79
2023-02-24T07:47:06.169Z,30.94
2023-02-24T07:48:06.138Z,31.07
2023-02-24T07:49:06.076Z,31.16
2023-02-24T07:50:06.047Z,31.23
2023-02-24T07:51:05.994Z,31.34
2023-02-24T07:52:05.993Z,31.45
2023-02-24T08:26:06.917Z,34.21
2023-02-24T09:29:02.434Z,24.66
2023-02-24T10:12:00.923Z,26.14
2023-02-24T10:53:59.641Z,31.92
2023-02-24T10:54:59.601Z,31.89
2023-02-24T10:55:59.545Z,31.96
2023-02-24T10:56:59.438Z,32.01
2023-02-24T10:59:01.519Z,32.37
2023-02-24T10:59:59.309Z,32.64
2023-02-24T11:00:59.331Z,32.80
2023-02-24T11:01:59.317Z,32.67
2023-02-24T11:02:59.301Z,32.84
2023-02-24T11:03:59.280Z,32.88
2023-02-24T11:05:00.154Z,33.05
2023-02-24T11:05:59.267Z,33.07
2023-02-24T11:06:59.263Z,33.10
2023-02-24T11:07:59.275Z,33.07
2023-02-24T11:08:59.271Z,33.08
2023-02-24T11:09:59.272Z,33.06
2023-02-24T11:10:59.311Z,33.02
2023-02-24T11:11:59.282Z,33.07
2023-02-24T11:13:08.998Z,32.95
2023-02-24T11:14:59.150Z,32.99
2023-02-24T11:15:59.152Z,32.93
2023-02-24T11:16:59.092Z,32.98
2023-02-24T11:17:59.085Z,33.02
2023-02-24T11:18:58.924Z,33.08
2023-02-24T11:19:58.915Z,33.05
2023-02-24T11:20:58.856Z,33.09
2023-02-24T11:21:58.762Z,33.08
2023-02-24T11:22:58.730Z,33.17
2023-02-24T11:23:58.698Z,33.19
2023-02-24T11:24:59.268Z,33.22
2023-02-24T11:25:58.497Z,33.30
2023-02-24T11:26:58.437Z,33.32
2023-02-24T11:27:58.387Z,33.30
2023-02-24T11:28:58.357Z,33.36
2023-02-24T11:29:58.284Z,33.32
2023-02-24T11:30:58.269Z,33.36
2023-02-24T11:31:59.131Z,33.38
2023-02-24T11:32:58.209Z,33.36
2023-02-24T11:33:58.065Z,33.36
2023-02-24T11:34:58.011Z,33.44
2023-02-24T11:35:57.951Z,33.43
2023-02-24T11:36:57.984Z,33.45
2023-02-24T11:37:57.988Z,33.44
2023-02-24T11:39:08.380Z,33.46
2023-02-24T11:39:58.748Z,33.51
2023-02-24T11:40:57.669Z,33.50
2023-02-24T11:41:57.609Z,33.49
2023-02-24T11:42:57.560Z,33.49
2023-02-24T11:43:57.510Z,33.54
2023-02-24T11:44:57.531Z,33.56
2023-02-24T11:45:57.414Z,33.56
2023-02-24T11:46:57.437Z,33.51
2023-02-24T11:47:57.367Z,33.54
2023-02-24T11:48:57.269Z,33.54
2023-02-24T11:49:57.218Z,33.51
2023-02-24T11:50:57.162Z,33.52
2023-02-24T11:51:57.118Z,33.58
2023-02-24T11:52:57.057Z,33.55
2023-02-24T11:53:57.031Z,33.53
2023-02-24T11:54:56.982Z,33.55
2023-02-24T11:55:56.914Z,33.56
2023-02-24T11:56:56.908Z,33.53
2023-02-24T11:57:56.810Z,33.58
2023-02-24T11:58:56.784Z,33.58
2023-02-24T11:59:56.718Z,33.57
2023-02-24T12:00:56.670Z,33.53
2023-02-24T12:01:56.622Z,33.54
2023-02-24T12:02:56.588Z,33.56
2023-02-24T12:03:56.592Z,33.53
2023-02-24T12:04:56.454Z,33.47
2023-02-24T12:05:56.487Z,33.50
2023-02-24T12:06:56.424Z,33.54
2023-02-24T12:07:56.308Z,33.57
2023-02-24T12:08:56.251Z,33.54
2023-02-24T12:10:06.935Z,33.49
2023-02-24T12:10:57.139Z,33.52
2023-02-24T12:11:56.500Z,33.51
2023-02-24T12:12:56.035Z,33.49
2023-02-24T12:13:55.985Z,33.54
2023-02-24T12:14:55.951Z,33.53
2023-02-24T12:15:55.960Z,33.55
2023-02-24T12:16:56.021Z,33.49
2023-02-24T12:17:55.862Z,33.55
2023-02-24T12:18:55.876Z,33.52
2023-02-24T12:19:55.698Z,33.55
2023-02-24T12:20:55.649Z,33.46
2023-02-24T12:21:55.603Z,33.56
2023-02-24T12:22:56.523Z,33.53
2023-02-24T12:23:55.551Z,33.49
2023-02-24T12:24:55.444Z,33.52
2023-02-24T12:25:55.382Z,33.51
2023-02-24T12:26:55.334Z,33.47
2023-02-24T12:27:55.280Z,33.42
2023-02-24T12:29:56.059Z,33.45
2023-02-24T16:33:57.132Z,32.59
2023-02-24T17:18:52.706Z,32.56
2023-02-24T17:19:52.718Z,32.59
2023-02-24T17:20:52.646Z,32.62
2023-02-24T17:21:52.593Z,32.55
2023-02-24T17:22:52.579Z,32.56
2023-02-24T17:23:52.533Z,32.59
2023-02-24T17:24:52.497Z,32.54
2023-02-24T17:25:52.479Z,32.57
2023-02-24T17:26:52.505Z,32.59
2023-02-24T17:27:52.389Z,32.54
2023-02-24T17:28:52.360Z,32.56
2023-02-24T17:29:52.325Z,32.57
2023-02-24T17:30:52.364Z,32.53
2023-02-24T17:31:52.468Z,32.56
2023-02-24T17:32:52.346Z,32.56
2023-02-24T17:33:52.182Z,32.50
2023-02-24T17:34:52.172Z,32.57
2023-02-24T17:35:52.121Z,32.51
2023-02-24T17:36:52.126Z,32.57
2023-02-24T17:37:52.037Z,32.60
2023-02-24T17:38:52.006Z,32.55
2023-02-24T17:39:52.608Z,32.54
2023-02-24T17:40:51.934Z,32.59
2023-02-24T17:41:51.900Z,32.58
2023-02-24T17:42:51.854Z,32.57
2023-02-24T17:43:51.832Z,32.57
2023-02-24T17:44:51.786Z,32.57
2023-02-24T17:45:51.769Z,32.54
2023-02-24T17:46:51.777Z,32.54
2023-02-24T17:47:51.669Z,32.53
2023-02-24T17:48:51.651Z,32.55
2023-02-24T17:49:51.604Z,32.54
2023-02-24T17:50:51.555Z,32.52
2023-02-24T17:51:52.107Z,32.49
2023-02-24T17:52:51.533Z,32.49
2023-02-24T17:53:51.449Z,32.57
2023-02-24T17:54:51.403Z,32.52
2023-02-24T17:56:02.367Z,32.52
2023-02-24T17:56:52.331Z,32.48
2023-02-24T17:57:51.289Z,32.49
2023-02-24T17:58:51.271Z,32.48
2023-02-24T17:59:51.217Z,32.42
2023-02-24T18:00:51.195Z,32.46
2023-02-24T18:01:51.186Z,32.45
2023-02-24T18:02:51.183Z,32.48
2023-02-24T18:03:51.076Z,32.42
2023-02-24T18:04:51.043Z,32.48
2023-02-24T18:05:51.010Z,32.42
2023-02-24T18:06:50.979Z,32.46
2023-02-24T18:07:50.941Z,32.48
2023-02-24T18:08:50.890Z,32.45
2023-02-24T18:09:50.857Z,32.46
2023-02-24T18:10:50.817Z,32.46
2023-02-24T18:11:50.782Z,32.46
2023-02-24T18:12:50.724Z,32.46
2023-02-24T18:13:50.683Z,32.46
2023-02-24T18:15:02.374Z,32.42
2023-02-24T18:15:51.710Z,32.43
2023-02-24T18:16:51.116Z,32.43
2023-02-24T18:17:50.519Z,32.46
2023-02-24T18:18:50.514Z,32.45
2023-02-24T18:20:50.451Z,32.40
2023-02-24T18:21:50.497Z,32.44
2023-02-24T18:22:50.352Z,32.37
2023-02-24T18:23:50.294Z,32.46
2023-02-24T18:24:50.280Z,32.42
2023-02-24T18:25:50.230Z,32.42
2023-02-24T18:26:50.185Z,32.37
2023-02-24T18:27:50.150Z,32.43
2023-02-24T18:28:50.104Z,32.49
2023-02-24T18:29:50.077Z,32.44
2023-02-24T20:14:49.996Z,31.96
2023-02-24T20:18:50.025Z,31.97
2023-02-24T20:23:50.076Z,31.97
2023-02-24T20:24:50.074Z,31.97
2023-02-24T20:25:50.158Z,32.02
2023-02-24T20:26:50.160Z,31.93
2023-02-24T20:27:50.091Z,31.93
2023-02-24T20:28:50.100Z,31.99
2023-02-24T20:29:51.749Z,31.99
2023-02-24T20:30:50.107Z,31.97
2023-02-24T20:31:50.209Z,32.00
2023-02-24T20:32:50.067Z,31.93
2023-02-24T20:33:49.953Z,31.97
2023-02-24T20:34:49.943Z,31.96
2023-02-24T20:35:49.883Z,31.96
2023-02-24T20:36:49.853Z,31.96
2023-02-24T20:37:49.821Z,31.96
2023-02-24T20:38:49.834Z,31.93
2023-02-24T20:39:49.734Z,31.97
2023-02-24T20:40:49.706Z,31.99
2023-02-24T20:41:49.664Z,31.99
2023-02-24T20:42:49.624Z,32.02
2023-02-24T20:43:49.607Z,31.97
2023-02-24T20:44:49.548Z,32.02
2023-02-24T20:45:49.590Z,31.97
2023-02-24T20:46:49.484Z,31.99
2023-02-24T20:47:49.438Z,31.96
2023-02-24T20:48:49.416Z,31.97
2023-02-24T20:49:49.416Z,31.97
2023-02-24T20:50:49.340Z,31.97
2023-02-24T20:51:49.344Z,31.96
2023-02-24T20:52:49.264Z,31.98
2023-02-24T20:53:57.281Z,31.93
2023-02-24T20:54:50.200Z,31.98
2023-02-24T20:55:49.169Z,31.94
2023-02-24T20:56:49.138Z,31.93
2023-02-24T20:57:49.109Z,31.96
2023-02-24T20:58:49.077Z,31.93
2023-02-24T21:00:02.558Z,31.96
2023-02-24T21:00:50.081Z,31.96
2023-02-24T21:01:49.062Z,31.94
2023-02-24T21:02:48.952Z,31.94
2023-02-24T21:03:48.916Z,31.99
2023-02-24T21:04:48.927Z,31.90
2023-02-24T21:05:49.425Z,31.97
2023-02-24T21:06:48.938Z,31.93
2023-02-24T21:07:48.836Z,31.96
2023-02-24T21:08:48.765Z,31.92
2023-02-24T21:09:48.790Z,31.93
2023-02-24T21:10:48.836Z,31.93
2023-02-24T21:11:48.647Z,31.90
2023-02-24T21:12:48.618Z,31.97
2023-02-24T21:13:48.574Z,31.93
2023-02-24T21:14:48.593Z,31.96
2023-02-24T21:15:48.645Z,31.97
2023-02-24T21:16:48.689Z,31.93
2023-02-24T21:17:48.623Z,31.94
2023-02-24T21:18:48.628Z,31.93
2023-02-24T21:19:48.634Z,31.93
2023-02-24T21:20:48.666Z,31.96
2023-02-24T21:21:48.663Z,31.92
2023-02-24T21:22:48.675Z,31.96
2023-02-24T21:23:48.694Z,31.88
2023-02-24T21:24:48.700Z,31.94
2023-02-24T21:25:48.707Z,31.90
2023-02-24T21:26:48.769Z,31.91
2023-02-24T21:27:48.729Z,31.89
2023-02-24T21:28:48.740Z,31.97
2023-02-24T21:48:49.053Z,31.94
2023-02-24T21:49:49.061Z,31.90
2023-02-24T21:50:49.084Z,31.88
2023-02-24T21:51:49.239Z,31.91
2023-02-24T21:52:49.129Z,31.88
2023-02-24T21:53:49.130Z,31.88
2023-02-24T21:54:49.215Z,31.88
2023-02-24T21:55:49.171Z,31.88
2023-02-24T21:56:49.178Z,31.88
2023-02-24T21:57:49.187Z,31.94
2023-02-24T21:58:49.209Z,31.94
2023-02-24T21:59:49.234Z,31.84
2023-02-24T22:00:49.222Z,31.92
2023-02-24T22:01:49.316Z,31.89
2023-02-24T22:02:49.375Z,31.87
2023-02-24T22:03:49.269Z,31.87
2023-02-24T22:04:49.292Z,31.86
2023-02-24T22:05:50.259Z,31.91
2023-02-24T22:06:49.322Z,31.91
2023-02-24T22:07:49.324Z,31.88
2023-02-24T22:08:49.353Z,31.87
2023-02-24T22:09:49.370Z,31.94
2023-02-24T22:10:49.384Z,31.89
2023-02-24T22:11:49.425Z,31.91
2023-02-24T22:12:49.424Z,31.86
2023-02-24T22:13:49.438Z,31.89
2023-02-24T22:14:49.455Z,31.88
2023-02-24T22:15:49.498Z,31.85
2023-02-24T22:16:49.477Z,31.88
2023-02-24T22:17:49.497Z,31.85
2023-02-24T22:18:49.510Z,31.87
2023-02-24T22:19:49.534Z,31.86
2023-02-24T22:20:49.569Z,31.81
2023-02-24T22:21:49.573Z,31.82
2023-02-24T22:22:49.597Z,31.81
2023-02-24T22:23:49.612Z,31.91
2023-02-24T22:24:49.649Z,31.89
2023-02-24T22:25:49.645Z,31.85
2023-02-24T22:26:49.677Z,31.85
2023-02-24T22:27:49.687Z,31.85
